Time;durP1;ratioP1;P1;durP2;ratioP2;P2;SDS_P1;SDS_P2;PMS_P1;PMS_P2;Temp;Humidity;BMP_temperature;BMP_pressure;BME280_temperature;BME280_humidity;BME280_pressure;Samples;Min_cycle;Max_cycle;Signal;HPM_P1;HPM_P2
2022/01/07 06:34:33;;;;;;;;;3.25;3.25;;;;;;;;6057547;22;46306;-82
2022/01/07 06:37:07;;;;;;;;;3.00;3.00;;;;;;;;6276235;22;45304;-83
2022/01/07 06:39:58;;;;;;;;;3.25;3.25;;;;;;;;6248724;22;46360;-82
2022/01/07 07:44:44;;;;;;;;;3.00;1.00;;;;;;;;6223855;22;45271;-83
2022/01/07 07:56:44;;;;;;;;;3.00;3.00;;;;;;;;6031285;23;45507;-83
2022/01/07 08:49:54;;;;;;;;;1.00;1.00;;;;;;;;6225290;22;28629;-88
2022/01/07 08:52:46;;;;;;;;;2.00;1.00;;;;;;;;6266240;22;28352;-86
2022/01/07 12:31:03;;;;;;;;;;;;;;;;;;;;;
2022/01/07 16:03:01;;;;;;;;;3.50;1.50;;;;;;;;6112807;22;46442;-87
2022/01/07 16:05:54;;;;;;;;;1.00;1.00;;;;;;;;6243704;22;45597;-90
2022/01/07 16:08:29;;;;;;;;;4.00;1.00;;;;;;;;6156779;22;46946;-87
2022/01/07 16:48:53;;;;;;;;;3.00;1.00;;;;;;;;6125708;22;46592;-85
2022/01/07 16:52:03;;;;;;;;;;;;;;;;;;;;;
2022/01/07 16:55:06;;;;;;;;;3.75;1.00;;;;;;;;6118756;23;73831;-84
2022/01/07 17:01:14;;;;;;;;;1.25;1.25;;;;;;;;6276246;22;45475;-85
2022/01/07 17:04:10;;;;;;;;;2.75;1.00;;;;;;;;6276607;22;45383;-84
2022/01/07 17:06:51;;;;;;;;;;;;;;;;;;;;;
2022/01/07 17:09:31;;;;;;;;;2.00;1.00;;;;;;;;6275786;22;72867;-85
2022/01/07 17:18:32;;;;;;;;;;;;;;;;;;;;;
2022/01/07 17:21:37;;;;;;;;;;;;;;;;;;;;;
2022/01/07 17:24:28;;;;;;;;;;;;;;;;;;;;;
2022/01/07 17:27:33;;;;;;;;;;;;;;;;;;;;;
2022/01/07 17:30:30;;;;;;;;;3.00;1.00;;;;;;;;6238463;22;74067;-85
2022/01/07 18:17:49;;;;;;;;;6.75;2.75;;;;;;;;6221598;22;29351;-83
2022/01/07 18:20:17;;;;;;;;;9.50;4.25;;;;;;;;6312912;22;28524;-84
2022/01/07 18:22:42;;;;;;;;;5.50;1.00;;;;;;;;6281787;22;28338;-86
2022/01/07 18:25:36;;;;;;;;;;;;;;;;;;;;;
2022/01/07 18:28:19;;;;;;;;;6.00;2.25;;;;;;;;6302169;22;28321;-86
2022/01/07 18:30:48;;;;;;;;;4.75;3.00;;;;;;;;6300323;22;28328;-85
2022/01/07 18:33:15;;;;;;;;;2.75;2.00;;;;;;;;6295299;22;8717;-85
2022/01/07 18:35:45;;;;;;;;;6.25;3.50;;;;;;;;6278200;22;28456;-85
2022/01/07 18:38:21;;;;;;;;;;;;;;;;;;;;;
2022/01/07 18:40:50;;;;;;;;;5.00;2.25;;;;;;;;6297037;22;54601;-85
2022/01/07 18:46:57;;;;;;;;;2.75;2.00;;;;;;;;6323921;22;8740;-85
2022/01/07 18:52:25;;;;;;;;;;;;;;;;;;;;;
2022/01/07 18:54:53;;;;;;;;;2.50;1.25;;;;;;;;6297415;22;56524;-83
2022/01/07 18:57:28;;;;;;;;;11.25;4.00;;;;;;;;6269856;22;29465;-85
2022/01/07 19:00:16;;;;;;;;;6.00;1.75;;;;;;;;6298145;22;28547;-83
2022/01/07 19:02:44;;;;;;;;;2.25;2.00;;;;;;;;6252285;22;28855;-83
2022/01/07 19:05:26;;;;;;;;;6.50;5.00;;;;;;;;6269824;22;28951;-83
2022/01/07 19:08:05;;;;;;;;;4.00;1.00;;;;;;;;6275997;22;30294;-84
2022/01/07 19:10:45;;;;;;;;;;;;;;;;;;;;;
2022/01/07 19:13:28;;;;;;;;;4.50;2.25;;;;;;;;6294897;22;54961;-83
2022/01/07 19:15:54;;;;;;;;;9.50;1.00;;;;;;;;6262042;22;45260;-84
2022/01/07 19:18:22;;;;;;;;;3.75;2.00;;;;;;;;6291691;22;46327;-86
2022/01/07 19:23:50;;;;;;;;;4.50;1.25;;;;;;;;6297636;22;28488;-85
2022/01/07 19:26:18;;;;;;;;;8.00;5.00;;;;;;;;6298934;22;41384;-85
2022/01/07 19:28:43;;;;;;;;;4.50;2.25;;;;;;;;6270091;22;30557;-83
2022/01/07 19:31:09;;;;;;;;;6.00;5.00;;;;;;;;6273893;22;29197;-83
2022/01/07 19:36:36;;;;;;;;;;;;;;;;;;2294631;22;131847841;-84
2022/01/07 19:43:19;;;;;;;;;0.50;0.50;;;;;;;;3;130556995;139574565;-84
2022/01/07 19:49:54;;;;;;;;;;;;;;;;;;;;;
2022/01/07 19:52:20;;;;;;;;;4.75;3.00;;;;;;;;6291956;22;56541;-84
2022/01/07 19:54:45;;;;;;;;;6.75;3.00;;;;;;;;6270380;22;28418;-84
2022/01/07 19:57:11;;;;;;;;;5.25;1.75;;;;;;;;6299208;22;28357;-84
2022/01/07 19:59:36;;;;;;;;;2.50;1.25;;;;;;;;6270846;22;30602;-84
2022/01/07 20:02:05;;;;;;;;;6.75;2.25;;;;;;;;6299943;22;28341;-85
2022/01/07 20:04:33;;;;;;;;;5.00;3.00;;;;;;;;6271550;22;28357;-85
2022/01/07 20:06:58;;;;;;;;;4.00;3.50;;;;;;;;6301098;22;28561;-85
2022/01/07 20:09:26;;;;;;;;;4.75;1.75;;;;;;;;6275614;22;29553;-85
2022/01/07 20:11:51;;;;;;;;;5.75;2.50;;;;;;;;6271894;22;29061;-83
2022/01/07 20:14:19;;;;;;;;;3.00;2.00;;;;;;;;6298672;22;28303;-83
2022/01/07 20:16:44;;;;;;;;;4.50;4.50;;;;;;;;6296786;22;28552;-84
2022/01/07 20:19:15;;;;;;;;;3.00;1.50;;;;;;;;6298041;22;28358;-83
2022/01/07 20:22:01;;;;;;;;;2.00;2.00;;;;;;;;6297308;22;28492;-81
2022/01/07 20:24:26;;;;;;;;;8.25;3.00;;;;;;;;6297763;22;28224;-81
2022/01/07 20:26:51;;;;;;;;;3.00;1.00;;;;;;;;6296590;22;28269;-82
2022/01/07 20:29:16;;;;;;;;;5.75;2.00;;;;;;;;6296186;22;28319;-81
2022/01/07 20:31:42;;;;;;;;;2.25;2.00;;;;;;;;6297454;22;28254;-81
2022/01/07 20:34:07;;;;;;;;;5.00;5.00;;;;;;;;6298587;22;28526;-81
2022/01/07 20:36:38;;;;;;;;;5.50;5.00;;;;;;;;6269536;22;28346;-81
2022/01/07 21:48:27;;;;;;;;;;;;;;;;;;;;;
2022/01/07 21:50:57;;;;;;;;;5.75;2.00;;;;;;;;6301251;22;28420;-83
2022/01/07 21:53:26;;;;;;;;;2.50;2.25;;;;;;;;6298183;22;28153;-83
2022/01/07 21:55:54;;;;;;;;;2.75;2.00;;;;;;;;6269200;22;28482;-83
2022/01/07 21:58:28;;;;;;;;;3.75;2.00;;;;;;;;6296226;22;28277;-83
2022/01/07 22:00:53;;;;;;;;;2.25;2.25;;;;;;;;6297473;22;28342;-82
2022/01/07 22:03:22;;;;;;;;;1.00;1.00;;;;;;;;6294170;22;28331;-83
2022/01/07 22:05:52;;;;;;;;;1.00;1.00;;;;;;;;6270041;22;30718;-84
2022/01/07 22:08:48;;;;;;;;;;;;;;;;;;;;;
2022/01/07 22:11:16;;;;;;;;;1.25;1.00;;;;;;;;6282141;22;53145;-83
2022/01/07 22:13:44;;;;;;;;;2.00;2.00;;;;;;;;6298298;22;28177;-84
2022/01/07 22:16:09;;;;;;;;;4.50;1.00;;;;;;;;6269519;22;29796;-84
2022/01/07 22:21:07;;;;;;;;;1.50;1.00;;;;;;;;6297047;22;28544;-83
2022/01/07 23:57:55;;;;;;;;;0.25;0.25;;;;;;;;6128367;22;29907;-87
